Selma, North Carolina
Current Conditions -  °F | °C
As of 3:15 PM on Sunday 23 Nov 2014 (Local Time) from KJNX Reporting Station
Drizzle Drizzle  
Wind Chill: 55°   Ceiling: 3300
Heat Index: 55°   Visibility: 10mi
Dew Point: 55°   Wind: 3mph
Humidity: 100%   Direction: 120°ESE
Pressure: 30.03"   Gusts: NA
Location:  35.54°N, 78.28°W
Report Text: KJNX 232015Z AUTO 12003KT 10SM -DZ SCT011 BKN033 OVC100 13/13 A3003 RMK AO2 P0001
Loading
Personal Weather Stations






























Interactive Weather Map New forecast layout! Learn more

10-Day Weather Forecast

Advertisements
Track Severe Weather on mobile